Terminal Aerodrome Forecast
Issued by NWS Kansas City/Pleasant Hill, MO

Home | Current Version | Previous Version | Text Only | Print | Product List | Glossary On
Versions: 1 2 3 4 5 6 7 8 9 10 11 12
000
FTUS43 KEAX 301100
TAFMCI
TAF
KMCI 301120Z 3012/0112 24006KT P6SM BKN090 OVC130
     FM302000 33008KT P6SM SCT150
     FM010300 10008KT P6SM VCTS BKN100CB
      TEMPO 0106/0110 VRB15G35KT 2SM TSRA BKN050CB=

USA.gov is the U.S. government's official web portal to all federal, state and local government web resources and services.